Hovedside
METAR-TAF:

METAR-TAF

Lufthavner :

Trondheim, Norge

Trondheim lufthavn

breddegrad: 63-28N, lengdegrad: 010-56E, høyde over havet: 1 m

Gjeldene værobservasjon

Denne rapporten ble laget for 28 minutter siden, klokken 18:50 UTC
Vind 5 kt fra Vest-sørvest, skiftende mellom Sør-sørvest og Vest
Temperatur 18°C
Luftfuktighet 73%
Trykk 1013 hPa
Sikt 10 km eller mer
ingen skyer under 1500 m og ingen bygeskyer

METAR: ENVA 271850Z 25005KT 200V280 CAVOK 18/13 Q1013 RMK WIND 670FT 08006KT

Tid: 21:18 (19:18 UTC)

Varsel

Varsel gyldig fra 27. klokken 18 UTC til 28. klokken 18 UTC
Vind 7 kt fra skiftende retning
Sikt 10 km eller mer
Få skyer i en høyde av 1500 ft
Brutte skyer i en høyde av 3000 ft
Blir
fra 28. klokken 10 UTC til 28. klokken 12 UTC
Vind 10 kt fra Vest
Midlertidig
fra 28. klokken 12 UTC til 28. klokken 18 UTC
Sikt: 4000 m
Brutte skyer i en høyde av 800 ft
regn

TAF: ENVA 2718/2818 VRB07KT 9999 FEW015 BKN030 BECMG 2810/2812 27010KT TEMPO 2812/2818 4000 RA BKN008

Værobservasjoner og værvarsel for over 4000 flyplasser (METAR- og TAF-rapporter).

Tilgjengelige stasjoner er representert av de røde og gule prikkene på kartet.

Hold musepekeren over prikken for å se navnet på stasjonen.

Klikk så for å se værobservasjoner og -varsler.

For å forandre kartet kan du klikke på den grønne knappen med svart kryss for å zoome inn, på den grønne knappen med strek for å zoome ut, eller på de grønne pilene for å se tilstøtende kart.


METAR-TAF: